Bremerton, WA

11:45 PM PDT on April 30, 2017 (GMT -0700)
Bloomington Ave | | Change Station

Elev 75 ft 47.58 °N, 122.65 °W | Updated 8 minutes ago

Overcast
Overcast
48.7 °F
Feels Like 49 °F
N
0.0
Wind Variable Wind from ENE
Gusts 1.0 mph

Today
High -- | Low -- °F
--% Chance of Precip.
Yesterday
High -- | Low -- °F
Precip. -- in
Pressure 30.34 in
Visibility 10.0 miles
Clouds Mostly Cloudy 1200 ft
Mostly Cloudy 4100 ft
Overcast 5500 ft
Windchill 49 °F
Dew Point 46 °F
Humidity 89%
Rainfall 0.02 in
Snow Depth Not available.
5:54 AM 8:21 PM
Waxing Crescent, 30% visible
SPECI KPWT 010642Z AUTO 00000KT 10SM BKN012 BKN041 OVC055 07/07 A3034 RMK AO2
Pressure 30.34 in
Visibility 10.0 miles
Clouds Mostly Cloudy 1200 ft
Mostly Cloudy 4100 ft
Overcast 5500 ft
Windchill 49 °F
Dew Point 46 °F
Humidity 89%
Rainfall 0.02 in
Snow Depth Not available.
5:54 AM 8:21 PM
Waxing Crescent, 30% visible
SPECI KPWT 010642Z AUTO 00000KT 10SM BKN012 BKN041 OVC055 07/07 A3034 RMK AO2

Get Severe Weather Alerts

Thanks for signing up!

Be on the lookout for a verification email in your inbox.

You'll start receiving the daily forecast at 8 AM.

×

10-Day Weather Forecast

Almanac

Astronomy

Apr. 30, 2017 Rise Set
Actual Time
Civil Twilight
Nautical Twilight
Astronomical Twilight
Moon
Length of Visible Light
Length of Day
Tomorrow will be .
, % of the Moon is Illuminated

Today's Extremes

State Highs State Lows

Community

WunderPhotos

WunderBlog® & News

Nearby

Air Quality

  Air Quality AQ Index Pollutant
Not available.

Snow Depth

Station Depth Elevation

Earthquake Activity

City Distance Mag. Time & Date
Minimum magnitude displayed is 2.5.

Coastal Water Temperatures

Place Temperature

Stations

Nearby Weather Stations

Station Location Temp. Windchill Dew Point Humidity Wind Precip. Elev Updated Type
                   

Watches & Warnings

There are currently no watches in effect.